createdAt,value
2022-09-21T00:00:48.478Z,693.05
2022-09-21T00:01:48.415Z,695.12
2022-09-21T00:02:48.384Z,696.66
2022-09-21T00:03:48.416Z,697.81
2022-09-21T00:04:48.369Z,698.81
2022-09-21T00:05:48.387Z,698.75
2022-09-21T00:06:48.341Z,696.05
2022-09-21T00:07:48.335Z,690.22
2022-09-21T00:08:48.332Z,684.90
2022-09-21T00:09:49.193Z,681.63
2022-09-21T00:10:48.298Z,679.91
2022-09-21T00:11:48.296Z,679.45
2022-09-21T00:12:48.330Z,680.52
2022-09-21T00:13:48.290Z,682.62
2022-09-21T00:14:48.260Z,684.89
2022-09-21T00:15:48.254Z,686.19
2022-09-21T00:16:48.301Z,685.63
2022-09-21T00:17:48.254Z,686.38
2022-09-21T00:18:48.212Z,688.07
2022-09-21T00:19:48.218Z,689.34
2022-09-21T00:20:48.189Z,690.50
2022-09-21T00:21:48.213Z,691.38
2022-09-21T00:22:48.203Z,692.66
2022-09-21T00:23:48.169Z,694.17
2022-09-21T00:24:48.175Z,694.97
2022-09-21T00:25:48.138Z,695.57
2022-09-21T00:26:48.146Z,695.83
2022-09-21T00:27:48.141Z,695.56
2022-09-21T00:28:48.103Z,693.01
2022-09-21T00:29:48.127Z,690.26
2022-09-21T00:30:48.091Z,690.04
2022-09-21T00:31:48.119Z,690.29
2022-09-21T00:32:48.069Z,689.68
2022-09-21T00:33:48.061Z,689.51
2022-09-21T00:34:48.052Z,689.03
2022-09-21T00:35:48.062Z,688.50
2022-09-21T00:36:48.015Z,688.72
2022-09-21T00:37:48.103Z,689.30
2022-09-21T00:38:47.992Z,689.56
2022-09-21T00:39:48.012Z,688.33
2022-09-21T00:40:47.986Z,686.16
2022-09-21T00:41:47.972Z,685.22
2022-09-21T00:42:47.951Z,684.67
2022-09-21T00:43:47.948Z,683.65
2022-09-21T00:44:47.939Z,682.03
2022-09-21T00:56:17.915Z,633.17
2022-09-21T00:57:17.892Z,639.43
2022-09-21T00:58:17.880Z,641.01
2022-09-21T00:59:21.409Z,641.75
2022-09-21T01:00:17.844Z,642.70
2022-09-21T01:01:17.913Z,643.77
2022-09-21T01:02:17.877Z,644.84
2022-09-21T01:03:17.849Z,645.93
2022-09-21T01:04:17.816Z,646.93
2022-09-21T01:05:17.811Z,648.47
2022-09-21T01:06:17.791Z,649.47
2022-09-21T01:07:17.785Z,650.10
2022-09-21T01:08:17.756Z,650.64
2022-09-21T01:09:17.750Z,651.33
2022-09-21T01:10:17.735Z,651.68
2022-09-21T01:11:17.733Z,650.92
2022-09-21T01:12:17.749Z,651.09
2022-09-21T01:13:17.729Z,650.89
2022-09-21T01:14:17.696Z,650.70
2022-09-21T01:15:17.689Z,650.49
2022-09-21T01:16:17.747Z,649.79
2022-09-21T01:17:17.684Z,649.36
2022-09-21T01:18:17.649Z,649.25
2022-09-21T01:19:17.647Z,649.45
2022-09-21T01:20:17.648Z,649.53
2022-09-21T01:21:17.641Z,648.59
2022-09-21T01:22:17.618Z,648.57
2022-09-21T01:23:17.612Z,648.69
2022-09-21T01:24:17.583Z,648.18
2022-09-21T01:25:17.606Z,648.37
2022-09-21T01:26:17.563Z,648.54
2022-09-21T01:27:17.623Z,649.22
2022-09-21T01:28:17.573Z,649.49
2022-09-21T01:29:17.534Z,649.57
2022-09-21T01:30:17.518Z,650.03
2022-09-21T01:31:17.601Z,650.55
2022-09-21T01:32:17.496Z,650.58
2022-09-21T01:33:17.509Z,650.52
2022-09-21T01:34:17.475Z,650.85
2022-09-21T01:35:17.491Z,651.65
2022-09-21T01:36:17.453Z,652.37
2022-09-21T01:37:17.446Z,652.85
2022-09-21T01:38:17.449Z,653.34
2022-09-21T01:39:17.451Z,653.18
2022-09-21T01:40:17.437Z,653.32
2022-09-21T01:41:17.404Z,653.56
2022-09-21T01:42:17.416Z,653.49
2022-09-21T01:43:17.408Z,652.78
2022-09-21T01:44:17.403Z,653.56
2022-09-21T01:45:17.370Z,654.38
2022-09-21T01:46:17.344Z,655.30
2022-09-21T01:47:17.338Z,656.42
2022-09-21T01:48:17.328Z,657.44
2022-09-21T01:49:17.328Z,658.69
2022-09-21T01:50:17.316Z,659.25
2022-09-21T01:51:17.331Z,660.31
2022-09-21T01:52:17.298Z,660.67
2022-09-21T01:53:17.289Z,660.17
2022-09-21T01:54:17.287Z,658.29
2022-09-21T01:55:17.252Z,656.49
2022-09-21T01:56:17.250Z,656.40
2022-09-21T01:57:17.231Z,656.96
2022-09-21T01:58:17.249Z,655.60
2022-09-21T01:59:17.211Z,654.20
2022-09-21T02:00:17.270Z,653.55
2022-09-21T02:01:17.205Z,654.09
2022-09-21T02:02:17.207Z,654.36
2022-09-21T02:03:17.164Z,655.35
2022-09-21T02:04:17.149Z,656.83
2022-09-21T02:05:17.160Z,657.12
2022-09-21T02:06:17.127Z,657.31
2022-09-21T02:07:17.124Z,657.67
2022-09-21T02:08:17.119Z,657.25
2022-09-21T02:09:17.112Z,656.99
2022-09-21T02:10:17.085Z,657.55
2022-09-21T02:11:17.090Z,658.36
2022-09-21T02:12:19.365Z,658.15
2022-09-21T02:13:17.063Z,658.41
2022-09-21T02:14:17.054Z,659.20
2022-09-21T02:15:17.050Z,659.20
2022-09-21T02:16:17.091Z,659.81
2022-09-21T02:17:17.026Z,658.99
2022-09-21T02:18:16.998Z,659.28
2022-09-21T02:19:17.010Z,660.06
2022-09-21T02:20:16.994Z,660.58
2022-09-21T02:21:16.970Z,661.34
2022-09-21T02:22:16.955Z,661.78
2022-09-21T02:23:16.970Z,661.65
2022-09-21T02:24:16.937Z,661.83
2022-09-21T02:25:16.938Z,662.34
2022-09-21T02:26:16.943Z,663.05
2022-09-21T02:27:16.905Z,664.47
2022-09-21T02:28:16.896Z,665.11
2022-09-21T02:29:16.891Z,664.05
2022-09-21T02:30:16.887Z,664.05
2022-09-21T02:31:17.819Z,664.01
2022-09-21T02:32:16.881Z,664.16
2022-09-21T02:33:16.856Z,663.97
2022-09-21T02:34:16.883Z,665.16
2022-09-21T02:35:16.819Z,666.18
2022-09-21T02:36:16.818Z,664.81
2022-09-21T02:37:16.809Z,665.82
2022-09-21T02:38:16.782Z,667.49
2022-09-21T02:39:16.782Z,669.64
2022-09-21T02:40:16.820Z,671.73
2022-09-21T02:41:16.749Z,672.43
2022-09-21T02:42:16.746Z,671.38
2022-09-21T02:43:16.745Z,668.53
2022-09-21T02:44:16.734Z,667.88
2022-09-21T02:45:16.705Z,668.09
2022-09-21T02:46:16.783Z,668.19
2022-09-21T02:47:16.699Z,666.59
2022-09-21T02:48:16.726Z,664.83
2022-09-21T02:49:16.662Z,663.60
2022-09-21T02:50:16.698Z,661.79
2022-09-21T02:51:16.658Z,661.68
2022-09-21T02:52:16.659Z,661.95
2022-09-21T02:53:16.623Z,662.31
2022-09-21T02:54:16.619Z,662.62
2022-09-21T02:55:16.616Z,663.42
2022-09-21T03:06:07.595Z,640.26
2022-09-21T03:07:07.567Z,654.01
2022-09-21T03:08:07.538Z,656.08
2022-09-21T03:09:07.533Z,657.09
2022-09-21T03:10:07.515Z,658.33
2022-09-21T03:11:07.517Z,659.31
2022-09-21T03:12:07.504Z,660.42
2022-09-21T03:13:07.491Z,660.85
2022-09-21T03:14:07.492Z,661.58
2022-09-21T03:15:07.487Z,662.39
2022-09-21T03:16:07.519Z,661.61
2022-09-21T03:17:07.451Z,661.29
2022-09-21T03:18:07.449Z,660.90
2022-09-21T03:19:07.561Z,660.24
2022-09-21T03:20:07.416Z,660.28
2022-09-21T03:21:07.415Z,660.71
2022-09-21T03:22:07.416Z,661.49
2022-09-21T03:23:07.379Z,663.00
2022-09-21T03:24:07.371Z,665.03
2022-09-21T03:25:07.371Z,667.75
2022-09-21T03:26:07.346Z,669.42
2022-09-21T03:27:07.355Z,670.08
2022-09-21T03:28:07.319Z,666.45
2022-09-21T03:29:07.365Z,664.70
2022-09-21T03:30:07.301Z,663.44
2022-09-21T03:31:07.374Z,663.36
2022-09-21T03:32:07.292Z,662.89
2022-09-21T03:33:07.283Z,662.28
2022-09-21T03:34:07.261Z,661.72
2022-09-21T03:35:07.250Z,661.92
2022-09-21T03:36:07.258Z,660.68
2022-09-21T03:37:07.224Z,660.99
2022-09-21T03:38:07.243Z,660.86
2022-09-21T03:39:07.222Z,660.43
2022-09-21T03:40:07.247Z,660.06
2022-09-21T03:41:07.183Z,659.37
2022-09-21T03:42:07.175Z,659.26
2022-09-21T03:43:07.183Z,659.63
2022-09-21T03:44:07.155Z,659.51
2022-09-21T03:45:07.143Z,659.06
2022-09-21T03:46:07.195Z,659.25
2022-09-21T03:47:07.120Z,659.35
2022-09-21T03:48:07.100Z,659.83
2022-09-21T03:49:07.106Z,660.34
2022-09-21T03:50:09.993Z,660.64
2022-09-21T03:51:07.092Z,661.05
2022-09-21T03:52:07.056Z,661.09
2022-09-21T03:53:07.063Z,661.22
2022-09-21T03:54:07.063Z,661.76
2022-09-21T03:55:07.071Z,662.06
2022-09-21T03:56:07.036Z,662.54
2022-09-21T03:57:07.019Z,663.09
2022-09-21T03:58:06.995Z,663.39
2022-09-21T03:59:10.550Z,663.59
2022-09-21T04:00:07.972Z,664.42
2022-09-21T04:01:06.996Z,664.68
2022-09-21T04:02:06.953Z,664.49
2022-09-21T04:03:06.937Z,664.07
2022-09-21T04:04:06.947Z,663.74
2022-09-21T04:05:06.912Z,664.32
2022-09-21T04:06:06.909Z,664.12
2022-09-21T04:07:06.903Z,664.76
2022-09-21T04:08:06.941Z,664.99
2022-09-21T04:09:06.869Z,664.55
2022-09-21T04:10:06.881Z,664.43
2022-09-21T04:11:06.859Z,664.44
2022-09-21T04:12:06.863Z,665.24
2022-09-21T04:13:06.826Z,665.86
2022-09-21T04:14:06.832Z,667.41
2022-09-21T04:15:06.863Z,668.95
2022-09-21T04:16:06.854Z,670.10
2022-09-21T04:17:06.781Z,670.33
2022-09-21T04:18:06.793Z,669.66
2022-09-21T04:19:06.908Z,669.83
2022-09-21T04:20:06.779Z,670.18
2022-09-21T04:21:06.745Z,669.21
2022-09-21T04:22:06.754Z,668.68
2022-09-21T04:23:06.716Z,667.76
2022-09-21T04:24:07.042Z,667.78
2022-09-21T04:25:06.742Z,667.07
2022-09-21T04:26:06.712Z,666.47
2022-09-21T04:27:06.672Z,666.28
2022-09-21T04:28:06.665Z,667.06
2022-09-21T04:29:06.801Z,667.77
2022-09-21T04:30:06.658Z,667.83
2022-09-21T04:31:06.658Z,667.54
2022-09-21T04:32:06.626Z,667.65
2022-09-21T04:33:06.641Z,666.99
2022-09-21T04:34:06.631Z,666.95
2022-09-21T04:35:06.585Z,666.83
2022-09-21T04:36:06.585Z,666.81
2022-09-21T04:37:06.562Z,667.15
2022-09-21T04:38:06.584Z,667.13
2022-09-21T04:39:06.554Z,667.43
2022-09-21T04:40:06.563Z,667.83
2022-09-21T04:41:06.546Z,668.26
2022-09-21T04:42:06.531Z,669.24
2022-09-21T04:43:06.515Z,669.83
2022-09-21T04:44:06.508Z,671.34
2022-09-21T04:45:06.478Z,672.30
2022-09-21T04:46:06.519Z,673.72
2022-09-21T04:47:06.468Z,675.31
2022-09-21T04:48:06.467Z,675.75
2022-09-21T04:49:06.471Z,675.21
2022-09-21T04:50:06.425Z,674.01
2022-09-21T04:51:06.422Z,673.57
2022-09-21T04:52:06.403Z,673.93
2022-09-21T04:53:06.390Z,674.69
2022-09-21T04:54:06.389Z,675.64
2022-09-21T04:55:06.393Z,676.13
2022-09-21T04:56:06.383Z,675.93
2022-09-21T04:57:06.345Z,676.82
2022-09-21T04:58:06.369Z,676.93
2022-09-21T04:59:06.558Z,676.52
2022-09-21T05:00:06.320Z,677.71
2022-09-21T05:01:06.507Z,678.82
2022-09-21T05:02:06.311Z,681.00
2022-09-21T05:03:06.277Z,684.03
2022-09-21T05:04:06.296Z,685.90
2022-09-21T05:05:06.267Z,687.38
2022-09-21T05:11:01.097Z,645.68
2022-09-21T05:12:01.001Z,676.19
2022-09-21T05:13:00.994Z,679.83
2022-09-21T05:14:00.988Z,679.25
2022-09-21T05:15:00.993Z,678.62
2022-09-21T05:16:01.034Z,679.09
2022-09-21T05:17:00.958Z,679.41
2022-09-21T05:18:00.948Z,679.22
2022-09-21T05:19:00.919Z,678.39
2022-09-21T05:21:17.580Z,650.91
2022-09-21T05:22:17.531Z,673.91
2022-09-21T05:23:17.531Z,676.41
2022-09-21T05:24:17.502Z,676.87
2022-09-21T05:25:17.509Z,675.97
2022-09-21T05:26:17.506Z,675.25
2022-09-21T05:27:17.474Z,674.82
2022-09-21T05:28:17.470Z,674.41
2022-09-21T05:29:17.490Z,675.06
2022-09-21T05:30:17.455Z,674.67
2022-09-21T05:31:18.445Z,674.71
2022-09-21T05:32:17.430Z,674.49
2022-09-21T05:33:17.423Z,674.31
2022-09-21T05:34:17.459Z,674.45
2022-09-21T05:35:17.390Z,674.85
2022-09-21T05:36:17.377Z,675.69
2022-09-21T05:37:17.383Z,676.68
2022-09-21T05:38:17.361Z,677.25
2022-09-21T05:39:17.512Z,678.59
2022-09-21T05:40:17.416Z,679.52
2022-09-21T05:41:29.871Z,679.92
2022-09-21T05:42:18.525Z,679.85
2022-09-21T05:45:07.153Z,646.09
2022-09-21T05:46:06.638Z,676.25
2022-09-21T05:47:06.542Z,676.75
2022-09-21T05:48:06.474Z,677.14
2022-09-21T05:49:06.615Z,678.16
2022-09-21T05:50:06.433Z,678.61
2022-09-21T05:51:09.229Z,679.23
2022-09-21T05:52:06.401Z,678.78
2022-09-21T05:53:06.438Z,676.53
2022-09-21T05:54:06.372Z,675.67
2022-09-21T05:55:06.372Z,673.55
2022-09-21T05:56:06.355Z,672.56
2022-09-21T05:57:06.382Z,671.25
2022-09-21T05:58:06.332Z,670.81
2022-09-21T05:59:06.343Z,670.74
2022-09-21T06:00:07.287Z,670.11
2022-09-21T06:01:06.359Z,669.78
2022-09-21T06:02:06.338Z,668.84
2022-09-21T06:03:06.277Z,667.37
2022-09-21T06:04:06.396Z,666.11
2022-09-21T06:05:06.255Z,665.14
2022-09-21T06:06:06.240Z,664.75
2022-09-21T06:07:06.245Z,664.39
2022-09-21T06:08:06.241Z,664.26
2022-09-21T06:09:06.244Z,663.88
2022-09-21T06:10:06.776Z,663.50
2022-09-21T06:11:06.209Z,662.93
2022-09-21T06:12:06.176Z,661.91
2022-09-21T06:13:06.185Z,661.67
2022-09-21T06:14:07.349Z,660.45
2022-09-21T06:15:06.170Z,659.99
2022-09-21T06:16:06.146Z,659.20
2022-09-21T06:17:06.152Z,658.43
2022-09-21T06:18:06.143Z,657.44
2022-09-21T06:19:06.116Z,656.46
2022-09-21T06:20:06.101Z,655.70
2022-09-21T06:21:07.881Z,655.19
2022-09-21T06:22:06.116Z,654.20
2022-09-21T06:23:06.776Z,653.32
2022-09-21T06:24:06.044Z,652.65
2022-09-21T06:25:06.042Z,652.19
2022-09-21T06:26:06.046Z,653.24
2022-09-21T06:27:06.047Z,651.83
2022-09-21T06:28:06.016Z,650.61
2022-09-21T06:29:06.009Z,650.41
2022-09-21T06:30:05.995Z,649.89
2022-09-21T06:31:06.017Z,649.25
2022-09-21T06:32:05.965Z,648.75
2022-09-21T06:33:05.988Z,648.32
2022-09-21T06:34:06.093Z,647.98
2022-09-21T06:35:06.074Z,648.11
2022-09-21T06:36:05.991Z,647.34
2022-09-21T06:37:06.046Z,648.53
2022-09-21T06:38:05.899Z,647.80
2022-09-21T06:39:05.882Z,646.88
2022-09-21T06:40:05.902Z,646.62
2022-09-21T06:41:05.877Z,647.53
2022-09-21T06:42:05.844Z,647.13
2022-09-21T06:43:05.857Z,647.38
2022-09-21T06:44:05.978Z,647.36
2022-09-21T06:45:05.815Z,646.50
2022-09-21T06:46:05.846Z,645.35
2022-09-21T06:47:05.811Z,644.64
2022-09-21T06:48:05.805Z,643.86
2022-09-21T06:49:05.801Z,643.66
2022-09-21T06:50:05.775Z,643.53
2022-09-21T06:51:05.767Z,642.88
2022-09-21T06:52:05.737Z,642.54
2022-09-21T06:53:05.799Z,642.35
2022-09-21T06:54:05.730Z,641.71
2022-09-21T06:55:05.731Z,641.49
2022-09-21T06:56:05.700Z,640.84
2022-09-21T06:57:05.698Z,640.58
2022-09-21T06:58:05.687Z,640.68
2022-09-21T06:59:05.660Z,640.68
2022-09-21T07:00:05.646Z,640.05
2022-09-21T07:01:05.770Z,639.67
2022-09-21T07:02:05.769Z,639.67
2022-09-21T07:03:05.620Z,638.90
2022-09-21T07:04:05.742Z,638.53
2022-09-21T07:05:05.648Z,637.43
2022-09-21T07:06:05.611Z,636.63
2022-09-21T07:07:05.781Z,636.15
2022-09-21T07:08:06.013Z,636.06
2022-09-21T07:10:07.541Z,635.97
2022-09-21T07:11:05.533Z,635.48
2022-09-21T07:12:05.564Z,635.61
2022-09-21T07:13:05.551Z,635.74
2022-09-21T07:14:05.604Z,635.53
2022-09-21T07:15:05.527Z,635.12
2022-09-21T07:16:05.541Z,635.06
2022-09-21T07:17:05.465Z,634.98
2022-09-21T07:18:05.987Z,635.14
2022-09-21T07:19:11.711Z,635.39
2022-09-21T07:20:06.463Z,635.51
2022-09-21T07:21:05.450Z,636.30
2022-09-21T07:22:05.407Z,636.56
2022-09-21T07:23:05.473Z,636.80
2022-09-21T07:24:08.367Z,636.40
2022-09-21T07:25:06.446Z,635.49
2022-09-21T07:26:05.476Z,634.96
2022-09-21T07:27:05.571Z,634.58
2022-09-21T07:28:05.380Z,634.29
2022-09-21T07:29:05.483Z,634.62
2022-09-21T07:30:05.340Z,634.71
2022-09-21T07:31:05.375Z,634.63
2022-09-21T07:32:05.320Z,634.65
2022-09-21T07:33:06.311Z,634.96
2022-09-21T07:34:05.304Z,634.89
2022-09-21T07:35:05.266Z,634.65
2022-09-21T07:36:05.293Z,634.29
2022-09-21T07:37:05.539Z,634.29
2022-09-21T07:38:05.226Z,634.32
2022-09-21T07:39:05.220Z,633.86
2022-09-21T07:40:05.334Z,633.91
2022-09-21T07:41:05.216Z,635.39
2022-09-21T07:42:05.252Z,635.38
2022-09-21T07:43:05.248Z,635.25
2022-09-21T07:44:05.450Z,635.23
2022-09-21T07:45:12.687Z,635.30
2022-09-21T07:46:05.252Z,635.63
2022-09-21T07:47:10.302Z,635.80
2022-09-21T07:48:05.161Z,636.12
2022-09-21T07:49:05.108Z,636.43
2022-09-21T07:50:05.148Z,636.91
2022-09-21T07:51:05.108Z,637.41
2022-09-21T07:52:09.397Z,637.79
2022-09-21T07:53:06.178Z,638.41
2022-09-21T07:54:05.074Z,639.07
2022-09-21T07:55:05.039Z,639.74
2022-09-21T07:56:05.035Z,641.37
2022-09-21T07:57:05.059Z,643.15
2022-09-21T07:58:05.044Z,643.45
2022-09-21T07:59:05.010Z,643.84
2022-09-21T08:00:05.043Z,644.79
2022-09-21T08:01:05.377Z,644.92
2022-09-21T08:02:05.134Z,645.48
2022-09-21T08:03:04.986Z,645.53
2022-09-21T08:04:05.037Z,645.04
2022-09-21T08:05:04.960Z,645.73
2022-09-21T08:06:04.921Z,647.11
2022-09-21T08:07:04.945Z,648.75
2022-09-21T08:08:04.923Z,649.89
2022-09-21T08:09:04.947Z,650.55
2022-09-21T08:10:04.914Z,651.12
2022-09-21T08:11:04.880Z,651.91
2022-09-21T08:12:04.884Z,652.29
2022-09-21T08:13:04.957Z,653.09
2022-09-21T08:14:05.163Z,653.96
2022-09-21T08:15:05.799Z,654.69
2022-09-21T08:16:05.554Z,654.54
2022-09-21T08:17:04.801Z,654.13
2022-09-21T08:18:04.793Z,653.74
2022-09-21T08:19:04.810Z,656.26
2022-09-21T08:20:04.769Z,656.99
2022-09-21T08:21:04.766Z,657.10
2022-09-21T08:22:04.856Z,656.87
2022-09-21T08:23:04.728Z,656.50
2022-09-21T08:24:04.762Z,657.08
2022-09-21T08:25:05.003Z,657.50
2022-09-21T08:26:04.723Z,658.18
2022-09-21T08:27:04.809Z,659.50
2022-09-21T08:28:09.448Z,661.22
2022-09-21T08:29:05.842Z,660.96
2022-09-21T08:30:04.734Z,662.57
2022-09-21T08:31:04.810Z,663.33
2022-09-21T08:32:04.691Z,663.23
2022-09-21T08:33:04.617Z,663.73
2022-09-21T08:34:04.621Z,663.60
2022-09-21T08:35:04.668Z,664.39
2022-09-21T08:36:04.599Z,664.59
2022-09-21T08:37:04.600Z,666.26
2022-09-21T08:38:04.570Z,668.88
2022-09-21T08:39:04.641Z,669.67
2022-09-21T08:40:04.606Z,670.55
2022-09-21T08:41:04.587Z,672.22
2022-09-21T08:42:04.595Z,671.72
2022-09-21T08:43:04.523Z,672.28
2022-09-21T08:44:04.524Z,672.31
2022-09-21T08:45:04.489Z,672.78
2022-09-21T08:46:04.478Z,673.07
2022-09-21T08:47:04.597Z,673.47
2022-09-21T08:48:04.486Z,672.59
2022-09-21T08:49:04.515Z,672.01
2022-09-21T08:50:04.456Z,672.84
2022-09-21T08:51:04.757Z,673.20
2022-09-21T08:52:09.031Z,675.22
2022-09-21T08:53:04.786Z,676.70
2022-09-21T08:54:04.582Z,675.82
2022-09-21T08:55:04.379Z,675.59
2022-09-21T08:56:05.321Z,676.95
2022-09-21T08:57:05.934Z,678.32
2022-09-21T08:58:04.403Z,676.94
2022-09-21T08:59:04.359Z,678.12
2022-09-21T09:00:04.340Z,677.42
2022-09-21T09:01:07.042Z,678.05
2022-09-21T09:02:04.362Z,678.38
2022-09-21T09:03:04.324Z,678.16
2022-09-21T09:04:05.820Z,678.97
2022-09-21T09:05:04.266Z,680.40
2022-09-21T09:06:04.257Z,681.61
2022-09-21T09:07:04.259Z,682.22
2022-09-21T09:08:04.284Z,681.61
2022-09-21T09:09:04.295Z,682.46
2022-09-21T09:10:04.218Z,683.30
2022-09-21T09:11:04.275Z,683.05
2022-09-21T09:12:08.592Z,682.71
2022-09-21T09:13:05.227Z,683.41
2022-09-21T09:14:04.205Z,683.27
2022-09-21T09:15:04.183Z,684.56
2022-09-21T09:16:04.210Z,685.16
2022-09-21T09:17:04.140Z,686.42
2022-09-21T09:18:04.134Z,685.82
2022-09-21T09:19:04.130Z,686.01
2022-09-21T09:20:04.114Z,687.44
2022-09-21T09:21:04.161Z,686.63
2022-09-21T09:22:04.098Z,686.89
2022-09-21T09:23:04.479Z,688.55
2022-09-21T09:24:04.156Z,690.42
2022-09-21T09:25:04.105Z,690.88
2022-09-21T09:26:04.063Z,691.19
2022-09-21T09:27:04.017Z,692.84
2022-09-21T09:28:04.032Z,692.13
2022-09-21T09:29:04.038Z,692.91
2022-09-21T09:30:04.234Z,692.87
2022-09-21T09:31:04.031Z,694.42
2022-09-21T09:32:03.987Z,695.10
2022-09-21T09:33:04.020Z,692.79
2022-09-21T09:34:03.950Z,696.42
2022-09-21T09:35:03.943Z,695.48
2022-09-21T09:36:03.956Z,695.54
2022-09-21T09:37:03.914Z,695.64
2022-09-21T09:38:04.824Z,694.74
2022-09-21T09:39:03.965Z,694.60
2022-09-21T09:40:04.290Z,697.67
2022-09-21T09:41:03.862Z,699.57
2022-09-21T09:42:03.861Z,698.83
2022-09-21T09:43:04.960Z,700.40
2022-09-21T09:44:03.840Z,702.60
2022-09-21T09:45:03.839Z,702.82
2022-09-21T09:46:13.459Z,705.12
2022-09-21T09:47:03.872Z,704.76
2022-09-21T09:48:03.839Z,704.87
2022-09-21T09:49:03.770Z,704.08
2022-09-21T09:50:03.842Z,703.75
2022-09-21T09:51:03.778Z,701.42
2022-09-21T09:52:03.739Z,701.83
2022-09-21T09:53:03.754Z,702.11
2022-09-21T09:54:06.935Z,703.00
2022-09-21T09:55:04.722Z,703.45
2022-09-21T09:56:03.739Z,705.30
2022-09-21T09:57:03.714Z,704.74
2022-09-21T09:58:03.694Z,706.66
2022-09-21T09:59:03.660Z,708.25
2022-09-21T10:00:03.728Z,710.58
2022-09-21T10:01:03.705Z,712.91
2022-09-21T10:02:03.733Z,716.91
2022-09-21T10:03:03.647Z,717.14
2022-09-21T10:04:03.650Z,717.23
2022-09-21T10:05:03.631Z,717.06
2022-09-21T10:06:03.581Z,712.47
2022-09-21T10:07:03.587Z,713.14
2022-09-21T10:08:03.581Z,713.49
2022-09-21T10:09:03.556Z,714.15
2022-09-21T10:10:03.551Z,718.13
2022-09-21T10:11:03.524Z,717.16
2022-09-21T10:12:08.136Z,717.97
2022-09-21T10:13:04.544Z,718.21
2022-09-21T10:14:03.514Z,716.34
2022-09-21T10:15:03.536Z,715.00
2022-09-21T10:16:03.527Z,723.19
2022-09-21T10:17:03.476Z,726.06
2022-09-21T10:18:03.465Z,729.71
2022-09-21T10:19:03.460Z,729.46
2022-09-21T10:20:03.439Z,727.46
2022-09-21T10:21:03.429Z,726.58
2022-09-21T10:22:03.428Z,727.05
2022-09-21T10:23:03.452Z,724.91
2022-09-21T10:24:03.381Z,722.79
2022-09-21T10:25:03.395Z,724.11
2022-09-21T10:26:03.358Z,724.71
2022-09-21T10:27:03.412Z,725.73
2022-09-21T10:28:03.418Z,725.09
2022-09-21T10:29:03.355Z,723.08
2022-09-21T10:30:03.332Z,719.26
2022-09-21T10:31:03.382Z,723.73
2022-09-21T10:32:03.302Z,725.19
2022-09-21T10:33:03.316Z,722.80
2022-09-21T10:34:03.269Z,724.08
2022-09-21T10:35:03.289Z,725.04
2022-09-21T10:36:03.248Z,726.41
2022-09-21T10:37:03.346Z,726.76
2022-09-21T10:38:03.261Z,730.07
2022-09-21T10:39:03.214Z,729.51
2022-09-21T10:40:03.332Z,730.03
2022-09-21T10:41:03.209Z,732.35
2022-09-21T10:42:03.187Z,733.10
2022-09-21T10:43:03.167Z,732.61
2022-09-21T10:44:03.169Z,734.13
2022-09-21T10:45:03.204Z,735.82
2022-09-21T10:46:03.240Z,736.18
2022-09-21T10:47:03.128Z,736.37
2022-09-21T10:48:03.115Z,736.28
2022-09-21T10:49:03.186Z,735.87
2022-09-21T10:50:03.185Z,737.02
2022-09-21T10:51:03.586Z,733.35
2022-09-21T10:52:03.090Z,733.60
2022-09-21T10:53:03.077Z,733.25
2022-09-21T10:54:03.057Z,733.62
2022-09-21T10:55:03.056Z,733.03
2022-09-21T10:56:17.531Z,732.23
2022-09-21T10:57:04.027Z,731.81
2022-09-21T10:58:03.008Z,732.18
2022-09-21T10:59:03.094Z,1303.61
2022-09-21T11:00:03.015Z,1303.61
2022-09-21T11:01:02.969Z,1303.61
2022-09-21T11:02:03.015Z,1303.61
2022-09-21T11:03:02.991Z,1303.61
2022-09-21T11:04:02.943Z,1303.61
2022-09-21T11:05:02.967Z,1303.61
2022-09-21T11:06:02.933Z,1303.61
2022-09-21T11:07:02.898Z,1303.61
2022-09-21T11:08:02.912Z,1303.61
2022-09-21T11:09:02.998Z,1303.61
2022-09-21T11:10:02.894Z,1303.61
2022-09-21T11:11:02.853Z,1303.61
2022-09-21T11:12:02.862Z,1303.61
2022-09-21T11:13:02.878Z,1303.61
2022-09-21T11:14:02.852Z,1303.61
2022-09-21T11:15:02.819Z,1303.61
2022-09-21T11:16:03.015Z,1303.61
2022-09-21T11:17:02.807Z,1303.61
2022-09-21T11:18:02.794Z,1303.61
2022-09-21T11:19:02.770Z,1303.61
2022-09-21T11:20:02.780Z,1303.61
2022-09-21T11:21:02.762Z,1303.61
2022-09-21T11:22:02.736Z,1303.61
2022-09-21T11:23:02.734Z,1303.61
2022-09-21T11:24:02.733Z,1303.61
2022-09-21T11:25:02.699Z,1303.61
2022-09-21T11:26:02.693Z,1303.61
2022-09-21T11:27:02.680Z,1303.61
2022-09-21T11:28:02.671Z,1303.61
2022-09-21T11:29:02.675Z,1303.61
2022-09-21T11:30:02.647Z,1303.61
2022-09-21T11:31:02.741Z,1303.61
2022-09-21T11:32:05.862Z,1303.61
2022-09-21T11:33:02.625Z,1303.61
2022-09-21T11:34:02.610Z,1303.61
2022-09-21T11:35:02.588Z,1303.61
2022-09-21T11:36:02.637Z,1303.61
2022-09-21T11:37:02.584Z,1303.61
2022-09-21T11:38:02.569Z,1303.61
2022-09-21T11:39:02.544Z,1303.61
2022-09-21T11:40:02.610Z,1303.61
2022-09-21T11:41:02.530Z,1303.61
2022-09-21T11:42:02.512Z,1303.61
2022-09-21T11:43:02.509Z,1303.61
2022-09-21T11:44:03.390Z,1303.61
2022-09-21T11:45:02.475Z,1303.61
2022-09-21T11:46:02.537Z,1303.61
2022-09-21T11:47:09.953Z,1303.61
2022-09-21T11:48:02.451Z,1303.61
2022-09-21T11:49:02.441Z,1303.61
2022-09-21T11:50:28.869Z,1303.61
2022-09-21T11:51:03.408Z,1303.61
2022-09-21T11:52:02.407Z,1303.61
2022-09-21T11:53:02.436Z,1303.61
2022-09-21T11:54:02.377Z,1303.61
2022-09-21T11:55:02.511Z,1303.61
2022-09-21T11:56:02.354Z,1303.61
2022-09-21T11:57:02.348Z,1303.61
2022-09-21T11:58:02.334Z,1303.61
2022-09-21T11:59:02.335Z,1303.61
2022-09-21T12:00:02.321Z,1303.61
2022-09-21T12:01:02.329Z,1303.61
2022-09-21T12:02:02.374Z,1303.61
2022-09-21T12:03:02.285Z,1303.61
2022-09-21T12:04:02.297Z,1303.61
2022-09-21T12:05:02.258Z,1303.61
2022-09-21T12:06:02.259Z,1303.61
2022-09-21T12:07:02.253Z,1303.61
2022-09-21T12:08:02.229Z,1303.61
2022-09-21T12:09:02.250Z,1303.61
2022-09-21T12:10:02.414Z,1303.61
2022-09-21T12:11:02.216Z,1303.61
2022-09-21T12:12:02.241Z,1303.61
2022-09-21T12:13:02.195Z,1303.61
2022-09-21T12:14:02.184Z,1303.61
2022-09-21T12:15:02.316Z,1303.61
2022-09-21T12:16:02.132Z,1303.61
2022-09-21T12:17:02.182Z,1303.61
2022-09-21T12:18:02.117Z,1303.61
2022-09-21T12:19:02.149Z,1303.61
2022-09-21T12:20:02.100Z,1303.61
2022-09-21T12:21:02.087Z,1303.61
2022-09-21T12:22:02.067Z,1303.61
2022-09-21T12:23:02.057Z,1303.61
2022-09-21T12:24:02.055Z,1303.61
2022-09-21T12:25:02.056Z,1303.61
2022-09-21T12:26:02.041Z,1303.61
2022-09-21T12:27:02.043Z,1303.61
2022-09-21T12:28:02.008Z,1303.61
2022-09-21T12:29:01.993Z,1303.61
2022-09-21T12:30:01.975Z,1303.61
2022-09-21T12:31:02.036Z,1303.61
2022-09-21T12:32:01.964Z,1303.61
2022-09-21T12:33:01.950Z,1303.61
2022-09-21T12:34:01.931Z,1303.61
2022-09-21T12:35:01.964Z,1303.61
2022-09-21T12:36:01.930Z,1303.61
2022-09-21T12:37:01.901Z,1303.61
2022-09-21T12:38:01.887Z,1303.61
2022-09-21T12:39:01.879Z,1303.61
2022-09-21T12:40:01.909Z,1303.61
2022-09-21T12:41:01.891Z,1303.61
2022-09-21T12:42:01.842Z,1303.61
2022-09-21T12:43:01.835Z,1303.61
2022-09-21T12:44:01.819Z,1303.61
2022-09-21T12:45:01.830Z,1303.61
2022-09-21T12:46:01.990Z,1303.61
2022-09-21T12:47:01.793Z,1303.61
2022-09-21T12:48:01.781Z,1303.61
2022-09-21T12:49:01.789Z,1303.61
2022-09-21T12:50:01.767Z,1303.61
2022-09-21T12:51:05.895Z,1303.61
2022-09-21T12:52:01.731Z,1303.61
2022-09-21T12:53:01.733Z,1303.61
2022-09-21T12:54:01.711Z,1303.61